createdAt,value
2022-07-29T00:01:53.618Z,100638.38
2022-07-29T00:11:59.966Z,100639.28
2022-07-29T00:22:05.278Z,100645.34
2022-07-29T00:32:08.078Z,100640.50
2022-07-29T00:42:10.984Z,100634.63
2022-07-29T00:52:16.955Z,100635.63
2022-07-29T01:02:22.402Z,100630.78
2022-07-29T01:12:27.374Z,100622.03
2022-07-29T01:22:35.422Z,100618.31
2022-07-29T01:32:40.407Z,100620.41
2022-07-29T01:42:49.939Z,100607.91
2022-07-29T01:53:00.550Z,100601.44
2022-07-29T02:03:08.718Z,100596.22
2022-07-29T02:13:11.566Z,100594.28
2022-07-29T02:23:15.740Z,100602.59
2022-07-29T02:33:19.848Z,100613.16
2022-07-29T02:43:23.881Z,100618.72
2022-07-29T02:53:28.140Z,100611.97
2022-07-29T03:03:37.107Z,100611.06
2022-07-29T03:13:40.512Z,100615.28
2022-07-29T03:23:48.839Z,100615.28
2022-07-29T03:33:51.050Z,100603.72
2022-07-29T03:43:54.861Z,100620.22
2022-07-29T03:53:57.382Z,100611.06
2022-07-29T04:04:00.813Z,100619.22
2022-07-29T04:14:03.262Z,100616.78
2022-07-29T04:24:05.788Z,100625.59
2022-07-29T04:34:09.057Z,100631.53
2022-07-29T04:44:11.345Z,100627.84
2022-07-29T04:54:13.877Z,100624.97
2022-07-29T05:04:16.800Z,100636.06
2022-07-29T05:14:19.587Z,100643.22
2022-07-29T05:24:22.291Z,100640.91
2022-07-29T05:34:26.183Z,100653.38
2022-07-29T05:44:28.494Z,100644.50
2022-07-29T05:54:30.834Z,100647.81
2022-07-29T06:04:34.786Z,100654.47
2022-07-29T06:14:39.108Z,100667.13
2022-07-29T06:24:45.005Z,100660.22
2022-07-29T06:34:48.873Z,100648.59
2022-07-29T06:44:53.192Z,100654.41
2022-07-29T06:54:56.224Z,100653.59
2022-07-29T07:04:59.858Z,100661.72
2022-07-29T07:15:02.392Z,100658.84
2022-07-29T07:25:05.199Z,100658.25
2022-07-29T07:35:09.325Z,100653.91
2022-07-29T07:45:13.904Z,100657.78
2022-07-29T07:55:19.478Z,100659.84
2022-07-29T08:05:21.997Z,100660.81
2022-07-29T08:15:24.563Z,100663.38
2022-07-29T08:25:26.977Z,100657.91
2022-07-29T08:35:34.766Z,100662.31
2022-07-29T08:45:48.977Z,100660.28
2022-07-29T08:55:51.625Z,100659.53
2022-07-29T09:05:55.513Z,100648.31
2022-07-29T09:15:59.226Z,100657.88
2022-07-29T09:26:07.317Z,100650.81
2022-07-29T09:36:10.835Z,100635.94
2022-07-29T09:46:14.967Z,100633.09
2022-07-29T09:56:17.428Z,100603.72
2022-07-29T10:06:19.845Z,100596.47
2022-07-29T10:16:22.267Z,100596.78
2022-07-29T10:26:25.209Z,100584.22
2022-07-29T10:36:52.511Z,100581.16
2022-07-29T10:46:58.605Z,100585.81
2022-07-29T10:57:17.166Z,100574.72
2022-07-29T11:07:19.807Z,100574.91
2022-07-29T11:17:22.595Z,100561.94
2022-07-29T11:27:32.306Z,100560.53
2022-07-29T11:37:34.665Z,100555.13
2022-07-29T11:47:49.119Z,100529.53
2022-07-29T11:58:03.926Z,100513.16
2022-07-29T12:08:14.621Z,100508.28
2022-07-29T12:18:24.571Z,100499.69
2022-07-29T12:28:27.867Z,100486.03
2022-07-29T12:38:30.805Z,100481.72
2022-07-29T12:48:38.887Z,100467.94
2022-07-29T12:58:42.714Z,100456.69
2022-07-29T13:09:09.288Z,100431.69
2022-07-29T13:19:13.618Z,100423.47
2022-07-29T13:29:16.024Z,100413.81
2022-07-29T13:39:18.573Z,100398.16
2022-07-29T13:49:20.949Z,100392.00
2022-07-29T13:59:23.391Z,100390.09
2022-07-29T14:09:25.727Z,100374.41
2022-07-29T14:19:28.303Z,100386.84
2022-07-29T14:29:36.903Z,100380.72
2022-07-29T14:39:43.189Z,100371.69
2022-07-29T14:49:45.789Z,100366.25
2022-07-29T14:59:48.343Z,100360.31
2022-07-29T15:09:50.797Z,100344.25
2022-07-29T15:19:53.124Z,100328.28
2022-07-29T15:29:55.451Z,100315.91
2022-07-29T15:40:00.114Z,100304.06
2022-07-29T15:50:02.678Z,100298.44
2022-07-29T16:00:06.135Z,100294.66
2022-07-29T16:10:11.596Z,100308.16
2022-07-29T16:20:14.127Z,100303.06
2022-07-29T16:30:17.127Z,100296.69
2022-07-29T16:40:20.234Z,100306.44
2022-07-29T16:50:23.054Z,100303.19
2022-07-29T17:00:26.164Z,100300.31
2022-07-29T17:10:30.093Z,100312.50
2022-07-29T17:20:36.831Z,100330.09
2022-07-29T17:30:39.182Z,100344.44
2022-07-29T17:40:44.066Z,100347.31
2022-07-29T17:50:48.241Z,100351.03
2022-07-29T18:00:51.422Z,100344.41
2022-07-29T18:10:54.146Z,100356.09
2022-07-29T18:20:57.082Z,100361.81
2022-07-29T18:31:00.828Z,100381.31
2022-07-29T18:41:04.235Z,100388.25
2022-07-29T18:48:49.043Z,100396.38
2022-07-29T18:49:53.891Z,100390.69
2022-07-29T18:50:56.301Z,100390.50
2022-07-29T18:51:58.642Z,100395.34
2022-07-29T18:53:02.310Z,100401.09
2022-07-29T18:54:06.074Z,100399.13
2022-07-29T18:55:09.054Z,100403.19
2022-07-29T18:56:11.522Z,100402.75
2022-07-29T18:57:54.610Z,100409.09
2022-07-29T18:58:40.769Z,100403.50
2022-07-29T18:59:43.963Z,100403.53
2022-07-29T19:00:46.485Z,100405.63
2022-07-29T19:01:49.443Z,100403.81
2022-07-29T19:02:52.892Z,100408.78
2022-07-29T19:03:58.514Z,100411.19
2022-07-29T19:05:00.939Z,100399.88
2022-07-29T19:06:03.606Z,100404.41
2022-07-29T19:07:06.664Z,100410.72
2022-07-29T19:08:09.302Z,100406.25
2022-07-29T19:09:11.986Z,100405.00
2022-07-29T19:10:14.601Z,100414.34
2022-07-29T19:11:17.131Z,100406.22
2022-07-29T19:12:20.452Z,100410.00
2022-07-29T19:13:22.824Z,100422.53
2022-07-29T19:14:25.203Z,100416.31
2022-07-29T19:15:28.159Z,100408.63
2022-07-29T19:16:30.665Z,100410.13
2022-07-29T19:17:33.165Z,100415.41
2022-07-29T19:18:35.752Z,100410.56
2022-07-29T19:19:38.178Z,100411.03
2022-07-29T19:20:42.197Z,100409.06
2022-07-29T19:21:44.476Z,100410.56
2022-07-29T19:22:47.048Z,100398.66
2022-07-29T19:24:03.836Z,100403.66
2022-07-29T19:25:10.280Z,100412.19
2022-07-29T19:26:12.794Z,100409.22
2022-07-29T19:27:23.156Z,100408.72
2022-07-29T19:28:26.548Z,100398.75
2022-07-29T19:29:29.228Z,100410.63
2022-07-29T19:30:31.698Z,100408.22
2022-07-29T19:31:37.073Z,100410.00
2022-07-29T19:32:39.937Z,100411.94
2022-07-29T19:33:42.831Z,100413.19
2022-07-29T19:35:05.127Z,100410.91
2022-07-29T19:36:07.546Z,100406.28
2022-07-29T19:37:10.418Z,100405.06
2022-07-29T19:38:13.552Z,100408.56
2022-07-29T19:39:16.368Z,100407.78
2022-07-29T19:40:18.965Z,100412.31
2022-07-29T19:51:13.544Z,100404.94
2022-07-29T20:01:16.927Z,100403.06
2022-07-29T20:11:20.087Z,100417.13
2022-07-29T20:21:23.220Z,100402.97
2022-07-29T20:31:26.367Z,100418.69
2022-07-29T20:41:29.249Z,100424.75
2022-07-29T20:51:32.040Z,100440.16
2022-07-29T21:01:46.464Z,100452.53
2022-07-29T21:11:49.069Z,100462.13
2022-07-29T21:21:52.106Z,100476.75
2022-07-29T21:31:55.089Z,100476.09
2022-07-29T21:41:57.478Z,100481.72
2022-07-29T21:52:00.128Z,100482.38
2022-07-29T22:02:04.439Z,100490.38
2022-07-29T22:12:09.821Z,100498.25
2022-07-29T22:22:13.089Z,100497.66
2022-07-29T22:32:16.087Z,100515.50
2022-07-29T22:42:18.508Z,100525.78
2022-07-29T22:52:23.345Z,100508.53
2022-07-29T23:02:28.677Z,100502.38
2022-07-29T23:12:31.105Z,100508.59
2022-07-29T23:22:34.262Z,100511.44
2022-07-29T23:32:37.081Z,100511.56
2022-07-29T23:42:39.849Z,100492.88
2022-07-29T23:52:44.042Z,100490.31
